createdAt,value
2023-04-27T00:00:39.392Z,11.50
2023-04-27T00:01:39.490Z,10.80
2023-04-27T00:02:39.570Z,10.40
2023-04-27T00:03:39.552Z,13.30
2023-04-27T00:04:39.687Z,10.50
2023-04-27T00:05:39.737Z,13.10
2023-04-27T00:06:39.379Z,10.90
2023-04-27T00:07:39.376Z,10.20
2023-04-27T00:08:40.200Z,12.20
2023-04-27T00:09:39.321Z,10.60
2023-04-27T00:10:39.319Z,12.40
2023-04-27T00:11:39.377Z,11.50
2023-04-27T00:12:39.336Z,11.40
2023-04-27T00:13:39.341Z,11.70
2023-04-27T00:14:39.285Z,11.40
2023-04-27T00:15:39.306Z,11.60
2023-04-27T00:16:40.315Z,9.90
2023-04-27T00:17:39.356Z,11.30
2023-04-27T00:18:39.269Z,12.00
2023-04-27T00:19:39.278Z,13.30
2023-04-27T00:20:39.270Z,10.20
2023-04-27T00:21:39.261Z,9.80
2023-04-27T00:22:40.239Z,12.40
2023-04-27T00:23:39.241Z,10.90
2023-04-27T00:24:39.270Z,12.50
2023-04-27T00:25:39.231Z,11.30
2023-04-27T00:26:39.258Z,12.00
2023-04-27T00:27:39.234Z,14.10
2023-04-27T00:28:39.206Z,11.60
2023-04-27T00:29:39.286Z,12.90
2023-04-27T00:30:39.181Z,11.60
2023-04-27T00:31:39.196Z,11.60
2023-04-27T00:32:39.212Z,11.40
2023-04-27T00:33:39.196Z,10.80
2023-04-27T00:34:39.167Z,10.80
2023-04-27T00:35:39.160Z,10.40
2023-04-27T00:36:39.162Z,10.90
2023-04-27T00:37:39.203Z,11.20
2023-04-27T00:38:39.127Z,9.60
2023-04-27T00:39:39.158Z,11.80
2023-04-27T00:40:39.132Z,11.10
2023-04-27T00:41:39.127Z,9.70
2023-04-27T00:42:39.136Z,9.10
2023-04-27T00:43:39.124Z,9.70
2023-04-27T00:44:39.930Z,10.80
2023-04-27T00:45:40.168Z,9.20
2023-04-27T00:46:39.123Z,11.20
2023-04-27T00:47:39.117Z,11.70
2023-04-27T00:48:39.078Z,9.90
2023-04-27T00:49:39.085Z,10.00
2023-04-27T00:50:39.110Z,9.30
2023-04-27T00:51:39.090Z,11.00
2023-04-27T00:52:39.052Z,10.30
2023-04-27T00:53:39.085Z,10.20
2023-04-27T00:54:39.033Z,12.80
2023-04-27T00:55:39.055Z,8.90
2023-04-27T00:56:39.044Z,10.90
2023-04-27T00:57:39.095Z,10.80
2023-04-27T00:58:39.032Z,9.30
2023-04-27T00:59:39.029Z,10.00
2023-04-27T01:00:39.027Z,11.20
2023-04-27T01:01:39.064Z,9.70
2023-04-27T01:02:39.336Z,11.30
2023-04-27T01:03:39.238Z,9.90
2023-04-27T01:04:39.070Z,11.50
2023-04-27T01:05:38.981Z,11.10
2023-04-27T01:06:38.973Z,8.70
2023-04-27T01:07:39.011Z,10.40
2023-04-27T01:08:39.014Z,10.50
2023-04-27T01:09:38.961Z,12.20
2023-04-27T01:10:38.952Z,11.10
2023-04-27T01:11:38.970Z,12.60
2023-04-27T01:12:38.969Z,9.90
2023-04-27T01:13:38.951Z,9.10
2023-04-27T01:14:38.934Z,10.00
2023-04-27T01:15:38.936Z,14.00
2023-04-27T01:16:38.960Z,12.20
2023-04-27T01:17:38.973Z,11.90
2023-04-27T01:18:38.889Z,11.90
2023-04-27T01:19:38.895Z,12.10
2023-04-27T01:20:39.080Z,13.10
2023-04-27T01:21:38.890Z,10.70
2023-04-27T01:22:38.871Z,12.00
2023-04-27T01:23:38.878Z,13.20
2023-04-27T01:24:38.858Z,11.10
2023-04-27T01:25:38.892Z,11.70
2023-04-27T01:26:38.888Z,11.70
2023-04-27T01:27:38.837Z,11.10
2023-04-27T01:28:38.889Z,9.50
2023-04-27T01:29:38.815Z,11.30
2023-04-27T01:30:38.829Z,11.40
2023-04-27T01:31:38.890Z,10.00
2023-04-27T01:32:38.884Z,11.30
2023-04-27T01:33:39.825Z,11.40
2023-04-27T01:34:38.806Z,12.20
2023-04-27T01:35:38.781Z,19.70
2023-04-27T01:36:38.789Z,11.90
2023-04-27T01:37:38.790Z,13.80
2023-04-27T01:38:38.795Z,11.80
2023-04-27T01:39:38.808Z,12.30
2023-04-27T01:40:38.746Z,10.70
2023-04-27T01:41:38.762Z,11.20
2023-04-27T01:42:38.754Z,11.50
2023-04-27T01:43:38.741Z,11.10
2023-04-27T01:44:38.769Z,12.40
2023-04-27T01:45:38.754Z,11.10
2023-04-27T01:46:38.814Z,11.70
2023-04-27T01:47:38.759Z,17.20
2023-04-27T01:48:38.776Z,11.60
2023-04-27T01:49:38.744Z,12.60
2023-04-27T01:50:38.724Z,10.80
2023-04-27T01:51:38.696Z,11.90
2023-04-27T01:52:38.704Z,11.70
2023-04-27T01:53:38.754Z,12.70
2023-04-27T01:54:38.698Z,11.60
2023-04-27T01:55:38.683Z,12.20
2023-04-27T01:56:38.662Z,11.60
2023-04-27T01:57:38.705Z,14.00
2023-04-27T01:58:38.738Z,11.40
2023-04-27T01:59:38.658Z,11.30
2023-04-27T02:00:38.623Z,13.10
2023-04-27T02:01:38.742Z,11.20
2023-04-27T02:02:38.728Z,11.60
2023-04-27T02:03:38.860Z,11.40
2023-04-27T02:04:38.775Z,11.90
2023-04-27T02:05:38.600Z,12.20
2023-04-27T02:06:38.638Z,12.20
2023-04-27T02:07:38.613Z,12.80
2023-04-27T02:08:38.608Z,12.20
2023-04-27T02:09:38.623Z,13.20
2023-04-27T02:10:38.589Z,13.50
2023-04-27T02:11:38.597Z,14.10
2023-04-27T02:12:38.563Z,12.20
2023-04-27T02:13:38.603Z,11.40
2023-04-27T02:14:38.547Z,13.60
2023-04-27T02:15:38.552Z,15.90
2023-04-27T02:16:38.606Z,15.30
2023-04-27T02:17:38.612Z,14.50
2023-04-27T02:18:38.627Z,13.80
2023-04-27T02:19:39.526Z,14.00
2023-04-27T02:20:38.544Z,14.10
2023-04-27T02:21:38.507Z,16.10
2023-04-27T02:22:38.534Z,13.60
2023-04-27T02:23:38.561Z,13.40
2023-04-27T02:24:38.494Z,14.10
2023-04-27T02:25:38.555Z,11.40
2023-04-27T02:26:38.547Z,11.00
2023-04-27T02:27:38.531Z,12.50
2023-04-27T02:28:38.506Z,11.30
2023-04-27T02:29:38.517Z,10.40
2023-04-27T02:30:38.444Z,9.70
2023-04-27T02:31:38.489Z,9.30
2023-04-27T02:32:38.495Z,10.90
2023-04-27T02:33:38.467Z,10.90
2023-04-27T02:34:38.430Z,13.00
2023-04-27T02:35:38.477Z,12.20
2023-04-27T02:36:38.437Z,13.70
2023-04-27T02:37:38.433Z,12.80
2023-04-27T02:38:38.450Z,11.60
2023-04-27T02:39:38.462Z,11.80
2023-04-27T02:40:38.397Z,13.80
2023-04-27T02:41:38.397Z,14.60
2023-04-27T02:42:38.397Z,12.80
2023-04-27T02:43:38.389Z,13.50
2023-04-27T02:44:38.380Z,12.20
2023-04-27T02:45:38.440Z,10.70
2023-04-27T02:46:38.411Z,11.50
2023-04-27T02:47:38.386Z,15.10
2023-04-27T02:48:38.390Z,12.90
2023-04-27T02:49:38.355Z,15.10
2023-04-27T02:50:38.411Z,16.10
2023-04-27T02:51:38.352Z,15.80
2023-04-27T02:52:38.316Z,14.90
2023-04-27T02:53:38.313Z,15.80
2023-04-27T02:54:38.336Z,14.90
2023-04-27T02:55:38.308Z,14.50
2023-04-27T02:56:38.332Z,15.40
2023-04-27T02:57:38.306Z,13.50
2023-04-27T02:58:38.309Z,14.50
2023-04-27T02:59:38.354Z,14.70
2023-04-27T03:00:38.266Z,11.50
2023-04-27T03:01:38.398Z,13.60
2023-04-27T03:02:38.530Z,11.40
2023-04-27T03:03:38.363Z,11.60
2023-04-27T03:04:38.378Z,12.40
2023-04-27T03:05:38.225Z,15.20
2023-04-27T03:06:38.247Z,12.90
2023-04-27T03:07:38.275Z,12.40
2023-04-27T03:08:38.219Z,12.40
2023-04-27T03:09:38.205Z,15.40
2023-04-27T03:10:38.214Z,113.60
2023-04-27T03:11:38.225Z,37.90
2023-04-27T03:12:38.263Z,21.30
2023-04-27T03:13:38.210Z,13.70
2023-04-27T03:14:38.196Z,12.50
2023-04-27T03:15:38.176Z,16.30
2023-04-27T03:16:38.230Z,12.70
2023-04-27T03:17:38.251Z,12.60
2023-04-27T03:18:38.235Z,13.70
2023-04-27T03:19:38.193Z,11.20
2023-04-27T03:20:38.203Z,11.10
2023-04-27T03:21:38.162Z,10.80
2023-04-27T03:22:38.203Z,12.80
2023-04-27T03:23:38.143Z,14.10
2023-04-27T03:24:38.129Z,12.10
2023-04-27T03:25:38.121Z,13.20
2023-04-27T03:26:38.116Z,11.00
2023-04-27T03:27:38.156Z,10.40
2023-04-27T03:28:38.130Z,10.70
2023-04-27T03:29:38.144Z,10.30
2023-04-27T03:30:38.190Z,10.60
2023-04-27T03:31:38.159Z,9.00
2023-04-27T03:32:38.113Z,9.50
2023-04-27T03:33:38.157Z,12.00
2023-04-27T03:34:38.134Z,12.20
2023-04-27T03:35:38.120Z,12.00
2023-04-27T03:36:38.077Z,10.70
2023-04-27T03:37:38.143Z,10.20
2023-04-27T03:38:38.142Z,10.60
2023-04-27T03:39:38.111Z,11.50
2023-04-27T03:40:38.082Z,10.30
2023-04-27T03:41:38.141Z,10.50
2023-04-27T03:42:38.029Z,11.50
2023-04-27T03:43:38.080Z,10.40
2023-04-27T03:44:38.012Z,11.90
2023-04-27T03:45:38.033Z,10.70
2023-04-27T03:46:38.057Z,10.70
2023-04-27T03:47:38.040Z,10.40
2023-04-27T03:48:37.992Z,13.60
2023-04-27T03:49:38.051Z,13.50
2023-04-27T03:50:37.964Z,11.30
2023-04-27T03:51:37.991Z,12.80
2023-04-27T03:52:37.961Z,12.60
2023-04-27T03:53:38.079Z,12.00
2023-04-27T03:54:38.985Z,12.30
2023-04-27T03:55:37.973Z,13.00
2023-04-27T03:56:37.937Z,13.60
2023-04-27T03:57:37.985Z,12.10
2023-04-27T03:58:37.922Z,13.40
2023-04-27T03:59:37.926Z,14.10
2023-04-27T04:00:37.944Z,15.70
2023-04-27T04:01:37.941Z,16.70
2023-04-27T04:02:38.033Z,12.70
2023-04-27T04:03:38.031Z,16.70
2023-04-27T04:04:38.103Z,13.60
2023-04-27T04:05:37.916Z,12.30
2023-04-27T04:06:37.875Z,15.00
2023-04-27T04:07:37.886Z,12.10
2023-04-27T04:08:37.901Z,13.00
2023-04-27T04:09:37.892Z,13.80
2023-04-27T04:10:37.899Z,14.10
2023-04-27T04:11:37.907Z,12.20
2023-04-27T04:12:37.878Z,14.30
2023-04-27T04:13:37.837Z,15.80
2023-04-27T04:14:37.827Z,16.10
2023-04-27T04:15:37.882Z,16.10
2023-04-27T04:16:37.863Z,15.50
2023-04-27T04:17:37.851Z,15.50
2023-04-27T04:18:37.888Z,16.10
2023-04-27T04:19:37.824Z,14.90
2023-04-27T04:20:37.822Z,17.50
2023-04-27T04:21:37.782Z,17.60
2023-04-27T04:22:37.814Z,17.20
2023-04-27T04:23:37.777Z,18.20
2023-04-27T04:24:37.796Z,18.90
2023-04-27T04:25:37.800Z,19.60
2023-04-27T04:26:37.813Z,20.10
2023-04-27T04:27:37.745Z,19.20
2023-04-27T04:28:37.763Z,21.20
2023-04-27T04:29:37.733Z,20.70
2023-04-27T04:30:37.743Z,16.80
2023-04-27T04:31:37.806Z,14.50
2023-04-27T04:32:38.029Z,16.80
2023-04-27T04:33:37.937Z,29.80
2023-04-27T04:34:37.724Z,204.30
2023-04-27T04:35:37.741Z,267.40
2023-04-27T04:36:38.044Z,99.10
2023-04-27T04:37:37.748Z,138.40
2023-04-27T04:38:37.698Z,350.30
2023-04-27T04:39:37.716Z,287.20
2023-04-27T04:40:37.708Z,244.70
2023-04-27T04:41:37.683Z,130.90
2023-04-27T04:42:37.683Z,139.50
2023-04-27T04:43:37.665Z,34.40
2023-04-27T04:44:37.666Z,35.60
2023-04-27T04:45:37.638Z,130.60
2023-04-27T04:46:37.810Z,35.10
2023-04-27T04:47:37.694Z,20.50
2023-04-27T04:48:37.668Z,20.20
2023-04-27T04:49:37.650Z,25.50
2023-04-27T04:50:37.651Z,40.70
2023-04-27T04:51:37.611Z,45.80
2023-04-27T04:52:37.609Z,38.30
2023-04-27T04:53:37.604Z,34.70
2023-04-27T04:54:37.608Z,43.10
2023-04-27T04:55:37.669Z,30.00
2023-04-27T04:56:37.594Z,26.40
2023-04-27T04:57:37.618Z,25.70
2023-04-27T04:58:37.638Z,27.80
2023-04-27T04:59:37.563Z,30.50
2023-04-27T05:00:37.586Z,31.20
2023-04-27T05:01:37.698Z,29.20
2023-04-27T05:02:37.686Z,21.60
2023-04-27T05:03:37.807Z,15.90
2023-04-27T05:04:37.696Z,17.20
2023-04-27T05:05:37.565Z,20.90
2023-04-27T05:06:37.555Z,22.20
2023-04-27T05:07:37.543Z,25.50
2023-04-27T05:08:37.585Z,23.10
2023-04-27T05:09:37.559Z,19.20
2023-04-27T05:10:37.518Z,18.20
2023-04-27T05:11:37.532Z,15.60
2023-04-27T05:12:37.586Z,13.40
2023-04-27T05:13:37.519Z,13.00
2023-04-27T05:14:37.495Z,14.80
2023-04-27T05:15:37.507Z,44.60
2023-04-27T05:16:37.710Z,46.20
2023-04-27T05:17:37.530Z,41.10
2023-04-27T05:18:37.530Z,67.30
2023-04-27T05:19:37.470Z,41.80
2023-04-27T05:20:37.445Z,89.70
2023-04-27T05:21:37.466Z,318.50
2023-04-27T05:22:37.525Z,270.80
2023-04-27T05:23:37.478Z,180.20
2023-04-27T05:24:37.479Z,221.00
2023-04-27T05:25:37.423Z,201.50
2023-04-27T05:26:37.423Z,187.80
2023-04-27T05:27:37.446Z,165.80
2023-04-27T05:28:37.408Z,103.20
2023-04-27T05:29:37.714Z,153.20
2023-04-27T05:30:37.448Z,206.90
2023-04-27T05:31:37.472Z,167.20
2023-04-27T05:32:37.527Z,187.70
2023-04-27T05:33:37.533Z,225.50
2023-04-27T05:34:37.349Z,62.80
2023-04-27T05:35:37.377Z,30.40
2023-04-27T05:36:37.372Z,23.20
2023-04-27T05:37:37.363Z,15.10
2023-04-27T05:38:37.365Z,14.50
2023-04-27T05:39:37.343Z,15.60
2023-04-27T05:40:37.334Z,22.40
2023-04-27T05:41:37.337Z,24.40
2023-04-27T05:42:37.356Z,42.50
2023-04-27T05:43:37.317Z,52.70
2023-04-27T05:44:37.291Z,53.80
2023-04-27T05:45:37.386Z,59.30
2023-04-27T05:46:38.794Z,55.10
2023-04-27T05:47:38.345Z,45.40
2023-04-27T05:48:37.277Z,44.60
2023-04-27T05:49:37.358Z,37.80
2023-04-27T05:50:37.294Z,35.20
2023-04-27T05:51:37.281Z,33.00
2023-04-27T05:52:38.325Z,37.20
2023-04-27T05:53:37.299Z,32.20
2023-04-27T05:54:37.329Z,34.10
2023-04-27T05:55:37.316Z,37.40
2023-04-27T05:56:37.237Z,35.20
2023-04-27T05:57:37.230Z,28.80
2023-04-27T05:58:37.245Z,25.70
2023-04-27T05:59:37.217Z,18.70
2023-04-27T06:00:37.225Z,17.10
2023-04-27T06:01:37.208Z,17.30
2023-04-27T06:02:37.316Z,20.60
2023-04-27T06:03:37.319Z,22.60
2023-04-27T06:04:37.310Z,13.90
2023-04-27T06:05:37.270Z,19.90
2023-04-27T06:06:37.175Z,16.50
2023-04-27T06:07:37.186Z,14.40
2023-04-27T06:08:37.190Z,16.00
2023-04-27T06:09:37.290Z,12.10
2023-04-27T06:10:38.207Z,18.60
2023-04-27T06:11:37.170Z,12.90
2023-04-27T06:12:37.151Z,12.50
2023-04-27T06:13:37.163Z,14.20
2023-04-27T06:14:37.111Z,15.10
2023-04-27T06:15:37.192Z,13.80
2023-04-27T06:16:37.108Z,15.90
2023-04-27T06:17:38.172Z,13.60
2023-04-27T06:18:37.136Z,14.00
2023-04-27T06:19:37.218Z,13.30
2023-04-27T06:20:37.088Z,12.40
2023-04-27T06:21:37.111Z,13.30
2023-04-27T06:22:37.089Z,15.00
2023-04-27T06:23:37.077Z,15.50
2023-04-27T06:24:37.065Z,15.80
2023-04-27T06:25:37.075Z,17.00
2023-04-27T06:26:37.060Z,15.50
2023-04-27T06:27:37.085Z,13.80
2023-04-27T06:28:37.058Z,13.40
2023-04-27T06:29:37.057Z,14.40
2023-04-27T06:30:38.287Z,14.20
2023-04-27T06:31:38.063Z,14.00
2023-04-27T06:32:37.066Z,15.50
2023-04-27T06:33:37.026Z,15.50
2023-04-27T06:34:36.994Z,14.60
2023-04-27T06:35:37.017Z,13.40
2023-04-27T06:36:36.975Z,16.10
2023-04-27T06:37:36.989Z,17.30
2023-04-27T06:38:36.999Z,16.00
2023-04-27T06:39:37.000Z,14.80
2023-04-27T06:40:37.005Z,17.50
2023-04-27T06:41:36.986Z,13.70
2023-04-27T06:42:36.950Z,13.10
2023-04-27T06:43:36.986Z,14.20
2023-04-27T06:44:36.994Z,15.60
2023-04-27T06:45:36.939Z,16.90
2023-04-27T06:46:37.015Z,18.60
2023-04-27T06:47:36.907Z,21.70
2023-04-27T06:48:36.927Z,14.70
2023-04-27T06:49:36.908Z,17.00
2023-04-27T06:50:36.946Z,15.70
2023-04-27T06:51:36.925Z,17.40
2023-04-27T06:52:36.903Z,14.20
2023-04-27T06:53:36.943Z,14.50
2023-04-27T06:54:36.905Z,15.80
2023-04-27T06:55:36.914Z,16.60
2023-04-27T06:56:36.900Z,17.20
2023-04-27T06:57:36.946Z,15.70
2023-04-27T06:58:36.850Z,13.90
2023-04-27T06:59:36.866Z,14.80
2023-04-27T07:00:36.859Z,14.40
2023-04-27T07:01:36.926Z,14.60
2023-04-27T07:02:36.998Z,13.50
2023-04-27T07:03:37.076Z,17.70
2023-04-27T07:04:36.870Z,14.20
2023-04-27T07:05:36.908Z,14.40
2023-04-27T07:06:36.810Z,18.40
2023-04-27T07:07:36.886Z,15.80
2023-04-27T07:08:36.894Z,16.40
2023-04-27T07:09:36.818Z,18.10
2023-04-27T07:10:36.784Z,15.00
2023-04-27T07:11:36.781Z,15.60
2023-04-27T07:12:36.797Z,13.30
2023-04-27T07:13:36.797Z,14.60
2023-04-27T07:14:36.759Z,14.50
2023-04-27T07:15:36.962Z,17.80
2023-04-27T07:16:36.950Z,13.10
2023-04-27T07:18:11.756Z,16.30
2023-04-27T07:19:11.896Z,11.80
2023-04-27T07:20:11.780Z,16.10
2023-04-27T07:21:14.779Z,13.40
2023-04-27T07:22:13.766Z,14.40
2023-04-27T07:22:36.826Z,17.20
2023-04-27T07:24:14.677Z,15.20
2023-04-27T07:24:36.853Z,13.50
2023-04-27T07:26:11.723Z,17.00
2023-04-27T07:27:11.724Z,14.20
2023-04-27T07:28:11.414Z,14.50
2023-04-27T07:29:26.377Z,16.40
2023-04-27T07:29:37.808Z,15.90
2023-04-27T07:31:12.790Z,14.60
2023-04-27T07:31:36.868Z,11.70
2023-04-27T07:33:11.967Z,14.50
2023-04-27T07:34:16.706Z,14.20
2023-04-27T07:34:48.943Z,15.90
2023-04-27T07:40:36.891Z,16.80
2023-04-27T07:41:38.582Z,12.40
2023-04-27T07:42:37.922Z,14.40
2023-04-27T07:43:37.906Z,12.40
2023-04-27T07:44:37.891Z,11.80
2023-04-27T07:45:37.911Z,13.20
2023-04-27T07:46:37.853Z,13.70
2023-04-27T07:47:37.922Z,14.00
2023-04-27T07:48:37.850Z,13.30
2023-04-27T07:49:37.866Z,12.30
2023-04-27T07:50:37.833Z,13.90
2023-04-27T07:51:37.847Z,13.40
2023-04-27T07:52:37.887Z,14.50
2023-04-27T07:53:37.807Z,15.40
2023-04-27T07:54:37.821Z,13.70
2023-04-27T07:55:37.808Z,12.90
2023-04-27T07:56:37.824Z,14.50
2023-04-27T07:57:37.849Z,13.80
2023-04-27T07:58:37.796Z,17.20
2023-04-27T07:59:37.769Z,13.20
2023-04-27T08:00:37.877Z,12.20
2023-04-27T08:01:37.812Z,11.20
2023-04-27T08:02:37.900Z,14.40
2023-04-27T08:03:38.112Z,13.60
2023-04-27T08:04:38.235Z,12.90
2023-04-27T08:05:37.842Z,12.60
2023-04-27T08:06:38.258Z,13.70
2023-04-27T08:07:44.116Z,12.00
2023-04-27T08:08:39.745Z,12.50
2023-04-27T08:09:37.721Z,12.10
2023-04-27T08:10:37.703Z,13.40
2023-04-27T08:11:37.730Z,12.80
2023-04-27T08:12:37.735Z,11.90
2023-04-27T08:13:37.723Z,17.20
2023-04-27T08:14:37.678Z,17.80
2023-04-27T08:15:37.702Z,14.20
2023-04-27T08:16:37.850Z,14.20
2023-04-27T08:17:37.691Z,13.30
2023-04-27T08:18:37.730Z,12.90
2023-04-27T08:19:37.710Z,13.10
2023-04-27T08:20:37.633Z,12.80
2023-04-27T08:21:37.685Z,11.60
2023-04-27T08:22:37.638Z,12.20
2023-04-27T08:23:37.647Z,11.20
2023-04-27T08:24:37.650Z,14.10
2023-04-27T08:25:37.663Z,14.50
2023-04-27T08:26:37.641Z,13.20
2023-04-27T08:27:37.617Z,13.00
2023-04-27T08:28:37.656Z,12.10
2023-04-27T08:29:37.602Z,10.10
2023-04-27T08:30:37.623Z,10.40
2023-04-27T08:31:37.723Z,13.70
2023-04-27T08:32:37.764Z,13.30
2023-04-27T08:33:37.587Z,13.00
2023-04-27T08:34:37.604Z,13.60
2023-04-27T08:35:37.714Z,10.00
2023-04-27T08:36:37.705Z,11.30
2023-04-27T08:37:37.557Z,10.80
2023-04-27T08:38:37.569Z,10.80
2023-04-27T08:39:37.594Z,11.00
2023-04-27T08:40:37.522Z,12.40
2023-04-27T08:41:37.681Z,10.80
2023-04-27T08:42:37.485Z,11.20
2023-04-27T08:43:37.522Z,12.80
2023-04-27T08:44:38.599Z,10.70
2023-04-27T08:45:37.487Z,10.10
2023-04-27T08:46:37.515Z,12.10
2023-04-27T08:47:43.279Z,11.80
2023-04-27T08:48:39.540Z,12.10
2023-04-27T08:49:37.602Z,9.40
2023-04-27T08:50:37.501Z,13.50
2023-04-27T08:51:37.847Z,12.20
2023-04-27T08:52:37.736Z,14.00
2023-04-27T08:53:37.578Z,12.40
2023-04-27T08:54:37.549Z,14.50
2023-04-27T08:55:37.456Z,12.90
2023-04-27T08:56:37.432Z,12.80
2023-04-27T08:57:37.500Z,12.60
2023-04-27T08:58:37.412Z,11.70
2023-04-27T08:59:37.422Z,9.70
2023-04-27T09:00:37.385Z,10.70
2023-04-27T09:01:37.580Z,11.70
2023-04-27T09:02:37.481Z,11.70
2023-04-27T09:03:37.552Z,9.40
2023-04-27T09:04:37.637Z,11.10
2023-04-27T09:05:37.456Z,11.00
2023-04-27T09:06:37.454Z,11.70
2023-04-27T09:07:37.398Z,11.40
2023-04-27T09:08:37.435Z,9.40
2023-04-27T09:09:37.355Z,12.10
2023-04-27T09:10:37.343Z,13.70
2023-04-27T09:11:37.361Z,10.90
2023-04-27T09:12:37.390Z,10.60
2023-04-27T09:13:37.327Z,10.20
2023-04-27T09:14:37.974Z,12.20
2023-04-27T09:15:37.402Z,10.50
2023-04-27T09:16:37.458Z,9.50
2023-04-27T09:17:37.338Z,10.80
2023-04-27T09:18:37.323Z,10.80
2023-04-27T09:19:37.376Z,9.50
2023-04-27T09:20:37.330Z,8.40
2023-04-27T09:21:37.310Z,10.70
2023-04-27T09:22:37.269Z,9.50
2023-04-27T09:23:37.488Z,10.60
2023-04-27T09:27:20.468Z,8.70
2023-04-27T09:28:21.792Z,10.50
2023-04-27T09:29:57.672Z,11.50
2023-04-27T09:30:22.648Z,9.70
2023-04-27T09:31:21.663Z,8.40
2023-04-27T09:32:21.762Z,7.90
2023-04-27T09:33:21.530Z,8.50
2023-04-27T09:34:21.532Z,7.70
2023-04-27T09:35:21.817Z,6.40
2023-04-27T09:36:21.732Z,8.50
2023-04-27T09:37:21.531Z,7.40
2023-04-27T09:38:21.579Z,6.40
2023-04-27T09:39:21.762Z,6.50
2023-04-27T09:40:21.509Z,8.60
2023-04-27T09:41:21.807Z,7.10
2023-04-27T09:42:21.689Z,8.40
2023-04-27T09:43:21.599Z,7.50
2023-04-27T09:44:21.565Z,7.60
2023-04-27T09:45:21.611Z,7.80
2023-04-27T09:46:21.628Z,7.80
2023-04-27T09:47:21.665Z,9.30
2023-04-27T09:48:21.550Z,12.20
2023-04-27T09:49:21.758Z,9.40
2023-04-27T09:50:21.461Z,9.30
2023-04-27T09:51:21.475Z,12.70
2023-04-27T09:52:21.568Z,9.10
2023-04-27T09:53:21.595Z,10.00
2023-04-27T09:54:21.592Z,9.20
2023-04-27T09:55:21.512Z,9.50
2023-04-27T09:56:22.409Z,8.90
2023-04-27T09:57:21.418Z,9.40
2023-04-27T09:58:21.404Z,9.50
2023-04-27T09:59:21.437Z,11.40
2023-04-27T10:00:21.410Z,10.40
2023-04-27T10:01:21.469Z,8.90
2023-04-27T10:02:25.135Z,8.40
2023-04-27T10:03:23.243Z,11.20
2023-04-27T10:04:22.001Z,12.10
2023-04-27T10:05:21.656Z,9.40
2023-04-27T10:06:21.490Z,11.40
2023-04-27T10:07:21.486Z,9.90
2023-04-27T10:08:21.410Z,9.20
2023-04-27T10:09:21.951Z,8.40
2023-04-27T10:10:21.629Z,9.90
2023-04-27T10:11:21.344Z,12.30
2023-04-27T10:12:21.426Z,12.50
2023-04-27T10:13:21.416Z,9.60
2023-04-27T10:14:21.594Z,10.50
2023-04-27T10:15:21.353Z,9.50
2023-04-27T10:16:21.535Z,12.00
2023-04-27T10:17:21.263Z,11.10
2023-04-27T10:18:21.432Z,12.40
2023-04-27T10:19:21.345Z,11.40
2023-04-27T10:20:21.893Z,10.00
2023-04-27T10:21:23.188Z,10.20
2023-04-27T10:22:21.301Z,13.20
2023-04-27T10:23:21.399Z,9.30
2023-04-27T10:24:21.325Z,12.30
2023-04-27T10:25:21.278Z,12.80
2023-04-27T10:26:21.216Z,9.20
2023-04-27T10:27:21.181Z,13.00
2023-04-27T10:28:21.207Z,8.70
2023-04-27T10:29:21.187Z,10.40
2023-04-27T10:30:21.221Z,8.60
2023-04-27T10:31:21.192Z,9.60
2023-04-27T10:32:21.161Z,9.40
2023-04-27T10:33:21.163Z,10.90
2023-04-27T10:34:21.596Z,10.00
2023-04-27T10:35:22.175Z,10.60
2023-04-27T10:36:21.130Z,474.30
2023-04-27T10:37:21.197Z,395.50
2023-04-27T10:38:21.314Z,359.20
2023-04-27T10:39:25.578Z,428.90
2023-04-27T10:40:22.111Z,377.60
2023-04-27T10:41:21.202Z,433.30
2023-04-27T10:42:21.131Z,411.60
2023-04-27T10:43:21.055Z,908.20
2023-04-27T10:44:21.059Z,929.60
2023-04-27T10:45:21.225Z,901.20
2023-04-27T10:46:21.115Z,872.00
2023-04-27T10:47:21.064Z,882.50
2023-04-27T10:48:21.056Z,878.00
2023-04-27T10:49:21.960Z,927.20
2023-04-27T10:50:21.133Z,957.60
2023-04-27T10:51:22.159Z,910.00
2023-04-27T10:52:21.073Z,912.50
2023-04-27T10:53:21.076Z,939.40
2023-04-27T10:54:21.024Z,885.70
2023-04-27T10:55:21.020Z,899.70
2023-04-27T10:56:21.036Z,893.00
2023-04-27T10:57:21.034Z,862.60
2023-04-27T10:58:20.982Z,902.00
2023-04-27T10:59:20.986Z,887.50
2023-04-27T11:00:20.971Z,896.80
2023-04-27T11:01:20.995Z,902.70
2023-04-27T11:02:21.023Z,904.00
2023-04-27T11:03:21.064Z,878.20
2023-04-27T11:04:21.074Z,888.30
2023-04-27T11:05:21.021Z,894.50
2023-04-27T11:06:21.333Z,940.20
2023-04-27T11:07:21.148Z,904.00
2023-04-27T11:08:22.082Z,912.20
2023-04-27T11:09:21.281Z,902.60
2023-04-27T11:10:21.046Z,897.10
2023-04-27T11:11:20.988Z,888.20
2023-04-27T11:12:20.887Z,885.20
2023-04-27T11:13:20.913Z,875.30
2023-04-27T11:14:20.932Z,924.50
2023-04-27T11:15:20.915Z,926.60
2023-04-27T11:16:21.019Z,923.80
2023-04-27T11:17:20.896Z,927.70
2023-04-27T11:18:20.924Z,972.20
2023-04-27T11:19:20.867Z,903.20
2023-04-27T11:20:20.879Z,895.00
2023-04-27T11:21:20.855Z,909.10
2023-04-27T11:22:20.825Z,898.60
2023-04-27T11:23:20.833Z,904.30
2023-04-27T11:24:20.823Z,905.90
2023-04-27T11:25:20.837Z,922.40
2023-04-27T11:26:20.814Z,952.30
2023-04-27T11:27:20.772Z,949.50
2023-04-27T11:28:20.843Z,948.80
2023-04-27T11:29:20.779Z,933.00
2023-04-27T11:30:20.795Z,944.80
2023-04-27T11:31:20.806Z,925.10
2023-04-27T11:32:20.751Z,938.10
2023-04-27T11:33:20.821Z,927.20
2023-04-27T11:34:20.774Z,916.50
2023-04-27T11:35:20.746Z,923.00
2023-04-27T11:36:20.721Z,922.90
2023-04-27T11:37:20.741Z,930.00
2023-04-27T11:38:20.843Z,938.30
2023-04-27T11:39:20.794Z,911.50
2023-04-27T11:40:22.680Z,914.20
2023-04-27T11:41:20.831Z,918.90
2023-04-27T11:42:21.097Z,928.30
2023-04-27T11:43:21.278Z,933.70
2023-04-27T11:44:20.880Z,941.20
2023-04-27T11:45:21.149Z,922.00
2023-04-27T11:46:23.461Z,919.40
2023-04-27T11:47:21.318Z,929.60
2023-04-27T11:48:20.865Z,968.40
2023-04-27T11:49:22.099Z,944.80
2023-04-27T11:50:20.903Z,972.20
2023-04-27T11:51:21.553Z,985.10
2023-04-27T11:52:20.990Z,973.10
2023-04-27T11:53:21.022Z,947.20
2023-04-27T11:54:20.834Z,937.40
2023-04-27T11:55:20.735Z,917.00
2023-04-27T11:56:20.861Z,913.70
2023-04-27T11:57:20.677Z,906.70
2023-04-27T11:58:20.631Z,899.80
2023-04-27T11:59:20.603Z,905.50
2023-04-27T12:00:20.596Z,910.40
2023-04-27T12:01:27.718Z,896.60
2023-04-27T12:02:22.799Z,898.20
2023-04-27T12:03:21.804Z,910.00
2023-04-27T12:04:20.793Z,906.80
2023-04-27T12:05:20.626Z,907.00
2023-04-27T12:06:32.229Z,890.50
2023-04-27T12:07:22.563Z,894.30
2023-04-27T12:08:20.995Z,891.50
2023-04-27T12:09:20.590Z,895.70
2023-04-27T12:10:20.539Z,904.90
2023-04-27T12:11:20.852Z,913.80
2023-04-27T12:12:20.516Z,922.10
2023-04-27T12:13:20.525Z,924.30
2023-04-27T12:14:20.557Z,942.70
2023-04-27T12:15:20.543Z,933.20
2023-04-27T12:16:20.610Z,936.50
2023-04-27T12:17:20.560Z,963.30
2023-04-27T12:18:20.498Z,956.90
2023-04-27T12:19:20.547Z,954.30
2023-04-27T12:20:20.493Z,946.90
2023-04-27T12:21:20.650Z,936.10
2023-04-27T12:22:20.479Z,957.30
2023-04-27T12:23:20.508Z,940.40
2023-04-27T12:24:20.458Z,941.90
2023-04-27T12:25:20.429Z,946.20
2023-04-27T12:26:20.471Z,950.00
2023-04-27T12:27:20.441Z,941.60
2023-04-27T12:28:20.433Z,950.60
2023-04-27T12:29:20.437Z,928.10
2023-04-27T12:30:20.421Z,930.30
2023-04-27T12:31:20.443Z,923.70
2023-04-27T12:32:21.116Z,924.20
2023-04-27T12:33:21.511Z,885.50
2023-04-27T12:34:20.407Z,898.90
2023-04-27T12:35:53.938Z,869.00
2023-04-27T12:36:20.452Z,926.60
2023-04-27T12:37:53.862Z,910.10
2023-04-27T12:38:56.373Z,944.50
2023-04-27T12:39:20.485Z,953.10
2023-04-27T12:40:56.364Z,921.80
2023-04-27T12:41:20.418Z,946.40
2023-04-27T12:42:55.282Z,927.80
2023-04-27T12:43:56.479Z,933.30
2023-04-27T12:44:20.381Z,928.10
2023-04-27T12:45:54.866Z,910.40
2023-04-27T12:46:20.613Z,945.60
2023-04-27T12:50:49.733Z,888.20
2023-04-27T12:52:23.761Z,887.70
2023-04-27T12:52:50.840Z,943.80
2023-04-27T12:53:51.016Z,899.70
2023-04-27T12:54:50.851Z,902.40
2023-04-27T12:55:50.829Z,928.60
2023-04-27T12:56:50.786Z,902.90
2023-04-27T12:57:50.917Z,911.90
2023-04-27T12:58:50.919Z,904.20
2023-04-27T12:59:50.895Z,914.60
2023-04-27T13:00:50.792Z,890.90